KLBE/LBE METAR and TAF weather

Enter ICAO airport designator
Station Type Date Time Source
KLBE METAR 2018/12/10 08:55 UTC NOAA

KLBE 100855Z AUTO 00000KT 8SM CLR M10/M10 A3014 RMK AO2


Station Type Date Time Source
KLBE Decoded METAR 2018/12/10 08:55 UTC NOAA

Latrobe / Westmorland, PA, United States (KLBE) 40-17N 079-24W
Dec 10, 2018 - 03:55 AM EST / 2018.12.10 0855 UTC
Wind: Calm:0
Visibility: 8 mile(s):0
Sky conditions: clear
Temperature: 14 F (-10 C)
Dew Point: 14 F (-10 C)
Relative Humidity: 100%
Pressure (altimeter): 30.14 in. Hg (1020 hPa)
ob: KLBE 100855Z AUTO 00000KT 8SM CLR M10/M10 A3014 RMK AO2
cycle: 9

Station Type Date Time Source
KLBE TAF 2018/12/10 06:22 UTC NOAA

TAF KLBE 100520Z 1006/1106 VRB03KT P6SM SKC


Example: see airport list